createdAt,value
2022-08-20T00:02:14.381Z,6.65
2022-08-20T00:04:42.879Z,5.25
2022-08-20T00:07:12.658Z,5.88
2022-08-20T00:09:41.692Z,7.32
2022-08-20T00:12:10.970Z,6.95
2022-08-20T00:14:39.915Z,5.95
2022-08-20T00:17:08.392Z,6.35
2022-08-20T00:19:36.827Z,6.38
2022-08-20T00:22:05.440Z,6.90
2022-08-20T00:24:35.308Z,6.55
2022-08-20T00:27:03.798Z,6.90
2022-08-20T00:29:32.281Z,7.68
2022-08-20T00:32:00.922Z,8.10
2022-08-20T00:34:29.423Z,7.93
2022-08-20T00:36:57.972Z,8.40
2022-08-20T00:39:26.464Z,9.85
2022-08-20T00:41:56.246Z,8.40
2022-08-20T00:44:24.837Z,9.50
2022-08-20T00:46:53.839Z,8.98
2022-08-20T00:49:24.947Z,9.48
2022-08-20T00:51:57.574Z,9.52
2022-08-20T00:54:28.370Z,10.95
2022-08-20T00:56:59.479Z,11.07
2022-08-20T00:59:29.842Z,11.88
2022-08-20T01:01:58.659Z,12.57
2022-08-20T01:04:27.211Z,13.20
2022-08-20T01:06:55.648Z,12.88
2022-08-20T01:09:33.303Z,12.48
2022-08-20T01:12:14.777Z,12.65
2022-08-20T01:14:46.284Z,13.40
2022-08-20T01:17:17.593Z,12.82
2022-08-20T01:19:47.421Z,14.48
2022-08-20T01:22:35.358Z,13.40
2022-08-20T01:25:08.069Z,14.77
2022-08-20T01:27:42.483Z,15.30
2022-08-20T01:30:11.712Z,14.98
2022-08-20T01:32:40.174Z,15.80
2022-08-20T01:35:10.287Z,16.92
2022-08-20T01:37:38.920Z,15.02
2022-08-20T01:40:09.809Z,16.85
2022-08-20T01:42:53.992Z,17.40
2022-08-20T01:45:30.377Z,17.60
2022-08-20T01:47:59.696Z,18.38
2022-08-20T01:50:30.767Z,18.92
2022-08-20T01:53:01.048Z,19.58
2022-08-20T01:55:29.702Z,21.70
2022-08-20T01:57:59.554Z,20.95
2022-08-20T02:00:28.005Z,21.23
2022-08-20T02:02:56.376Z,21.80
2022-08-20T02:05:25.227Z,22.40
2022-08-20T02:07:58.987Z,22.77
2022-08-20T02:10:27.451Z,24.17
2022-08-20T02:13:01.896Z,23.50
2022-08-20T02:15:34.980Z,24.75
2022-08-20T02:18:07.956Z,26.55
2022-08-20T02:20:37.323Z,26.48
2022-08-20T02:23:07.577Z,25.58
2022-08-20T02:25:37.436Z,27.35
2022-08-20T02:28:10.515Z,26.40
2022-08-20T02:30:40.373Z,28.40
2022-08-20T02:33:11.247Z,28.00
2022-08-20T02:35:40.007Z,27.25
2022-08-20T02:38:08.591Z,26.45
2022-08-20T02:40:37.656Z,26.38
2022-08-20T02:43:07.773Z,25.98
2022-08-20T02:45:43.555Z,24.20
2022-08-20T02:48:20.679Z,24.02
2022-08-20T02:50:50.796Z,25.92
2022-08-20T02:53:19.232Z,25.65
2022-08-20T02:55:47.667Z,23.45
2022-08-20T02:58:17.487Z,21.75
2022-08-20T03:00:45.952Z,23.13
2022-08-20T03:03:15.347Z,20.90
2022-08-20T03:05:44.951Z,20.30
2022-08-20T03:08:14.352Z,20.33
2022-08-20T03:10:43.763Z,20.67
2022-08-20T03:13:12.790Z,20.52
2022-08-20T03:15:43.272Z,20.35
2022-08-20T03:18:11.999Z,21.45
2022-08-20T03:20:40.901Z,20.48
2022-08-20T03:23:09.566Z,21.45
2022-08-20T03:25:38.426Z,21.05
2022-08-20T03:28:07.185Z,21.20
2022-08-20T03:30:35.760Z,20.65
2022-08-20T03:33:05.580Z,20.95
2022-08-20T03:35:35.457Z,20.55
2022-08-20T03:38:03.832Z,20.95
2022-08-20T03:40:36.089Z,20.20
2022-08-20T03:43:05.146Z,20.80
2022-08-20T03:45:33.693Z,23.60
2022-08-20T03:48:02.692Z,22.95
2022-08-20T03:50:33.328Z,22.35
2022-08-20T03:53:02.565Z,23.02
2022-08-20T03:55:32.207Z,22.90
2022-08-20T03:58:02.682Z,23.35
2022-08-20T04:00:32.228Z,24.85
2022-08-20T04:03:00.890Z,22.95
2022-08-20T04:05:30.019Z,23.13
2022-08-20T04:08:03.417Z,23.67
2022-08-20T04:10:32.224Z,22.80
2022-08-20T04:13:00.615Z,21.52
2022-08-20T04:15:31.439Z,21.65
2022-08-20T04:18:00.016Z,22.63
2022-08-20T04:20:28.582Z,23.63
2022-08-20T04:22:59.405Z,22.63
2022-08-20T04:25:31.497Z,23.83
2022-08-20T04:28:06.445Z,25.77
2022-08-20T04:30:34.968Z,25.05
2022-08-20T04:33:03.544Z,24.20
2022-08-20T04:35:32.722Z,24.73
2022-08-20T04:38:02.048Z,26.55
2022-08-20T04:40:49.591Z,25.92
2022-08-20T04:43:17.975Z,26.38
2022-08-20T04:45:47.201Z,27.13
2022-08-20T04:48:15.776Z,28.70
2022-08-20T04:50:45.177Z,29.58
2022-08-20T04:53:14.401Z,29.42
2022-08-20T04:55:44.719Z,28.42
2022-08-20T04:58:14.676Z,32.60
2022-08-20T05:00:43.137Z,30.02
2022-08-20T05:03:12.141Z,28.58
2022-08-20T05:05:40.559Z,29.45
2022-08-20T05:08:19.577Z,29.60
2022-08-20T05:10:50.220Z,29.58
2022-08-20T05:13:35.279Z,30.50
2022-08-20T05:16:05.033Z,30.98
2022-08-20T05:18:34.532Z,30.20
2022-08-20T05:21:05.950Z,32.03
2022-08-20T05:23:34.558Z,30.77
2022-08-20T05:26:07.530Z,32.13
2022-08-20T05:28:36.963Z,31.33
2022-08-20T05:31:22.593Z,32.42
2022-08-20T05:33:59.498Z,34.20
2022-08-20T05:36:28.026Z,31.95
2022-08-20T05:38:56.712Z,33.58
2022-08-20T05:41:29.729Z,30.75
2022-08-20T05:43:59.724Z,32.13
2022-08-20T05:46:28.108Z,32.15
2022-08-20T05:48:59.489Z,30.73
2022-08-20T05:51:28.519Z,31.65
2022-08-20T05:54:03.679Z,29.60
2022-08-20T05:56:33.982Z,29.85
2022-08-20T05:59:04.061Z,29.40
2022-08-20T06:01:32.638Z,30.77
2022-08-20T06:04:22.014Z,33.05
2022-08-20T06:06:51.188Z,28.75
2022-08-20T06:09:30.785Z,32.25
2022-08-20T06:12:02.188Z,29.33
2022-08-20T06:14:30.987Z,29.27
2022-08-20T06:17:04.729Z,31.05
2022-08-20T06:19:33.771Z,32.63
2022-08-20T06:22:02.572Z,30.55
2022-08-20T06:24:45.947Z,30.67
2022-08-20T06:27:16.966Z,29.90
2022-08-20T06:29:45.431Z,30.15
2022-08-20T06:32:14.128Z,30.90
2022-08-20T06:34:50.624Z,30.23
2022-08-20T06:37:20.564Z,28.13
2022-08-20T06:39:49.161Z,30.08
2022-08-20T06:42:21.759Z,28.65
2022-08-20T06:44:50.987Z,29.80
2022-08-20T06:47:19.677Z,27.60
2022-08-20T06:49:48.758Z,29.80
2022-08-20T06:52:18.234Z,29.80
2022-08-20T06:54:47.181Z,29.10
2022-08-20T06:57:15.695Z,27.38
2022-08-20T06:59:45.499Z,27.20
2022-08-20T07:02:29.150Z,26.35
2022-08-20T07:04:58.743Z,25.88
2022-08-20T07:07:27.295Z,23.40
2022-08-20T07:10:01.242Z,24.58
2022-08-20T07:12:29.675Z,22.65
2022-08-20T07:14:59.472Z,21.27
2022-08-20T07:17:27.891Z,19.73
2022-08-20T07:19:56.329Z,19.63
2022-08-20T07:22:25.210Z,20.08
2022-08-20T07:24:53.652Z,19.25
2022-08-20T07:27:23.091Z,16.73
2022-08-20T07:30:12.713Z,15.30
2022-08-20T07:32:46.295Z,15.68
2022-08-20T07:35:17.687Z,14.27
2022-08-20T07:37:48.388Z,13.20
2022-08-20T07:40:21.366Z,14.55
2022-08-20T07:42:53.984Z,13.70
2022-08-20T07:45:22.524Z,13.20
2022-08-20T07:47:53.667Z,12.75
2022-08-20T07:50:24.314Z,12.57
2022-08-20T07:52:53.177Z,12.40
2022-08-20T07:55:22.548Z,11.98
2022-08-20T07:57:51.890Z,10.60
2022-08-20T08:00:21.016Z,12.02
2022-08-20T08:02:49.491Z,11.90
2022-08-20T08:05:19.563Z,12.48
2022-08-20T08:07:48.777Z,12.70
2022-08-20T08:10:18.608Z,13.65
2022-08-20T08:12:48.783Z,14.75
2022-08-20T08:15:18.835Z,14.50
2022-08-20T08:17:48.628Z,14.35
2022-08-20T08:20:19.271Z,14.52
2022-08-20T08:22:49.066Z,14.02
2022-08-20T08:25:17.947Z,14.15
2022-08-20T08:27:49.078Z,13.45
2022-08-20T08:30:18.154Z,14.23
2022-08-20T08:33:04.168Z,13.95
2022-08-20T08:35:32.983Z,14.38
2022-08-20T08:38:02.788Z,14.70
2022-08-20T08:40:32.003Z,14.15
2022-08-20T08:43:01.898Z,13.77
2022-08-20T08:45:33.099Z,12.63
2022-08-20T08:48:01.978Z,12.65
2022-08-20T08:50:52.888Z,12.63
2022-08-20T08:53:24.090Z,13.07
2022-08-20T08:55:52.513Z,12.75
2022-08-20T08:58:20.898Z,11.95
2022-08-20T09:00:55.858Z,12.15
2022-08-20T09:03:28.088Z,12.60
2022-08-20T09:05:57.201Z,12.00
2022-08-20T09:08:28.443Z,13.45
2022-08-20T09:10:56.906Z,12.90
2022-08-20T09:13:25.712Z,12.85
2022-08-20T09:15:54.175Z,11.85
2022-08-20T09:18:22.582Z,11.18
2022-08-20T09:20:51.124Z,11.40
2022-08-20T09:23:19.886Z,13.57
2022-08-20T09:25:49.752Z,12.75
2022-08-20T09:28:18.367Z,12.55
2022-08-20T09:30:46.786Z,13.05
2022-08-20T09:33:15.366Z,13.63
2022-08-20T09:35:45.972Z,15.10
2022-08-20T09:38:14.489Z,13.15
2022-08-20T09:40:42.935Z,12.32
2022-08-20T09:43:12.685Z,12.05
2022-08-20T09:45:41.155Z,10.05
2022-08-20T09:48:10.289Z,10.40
2022-08-20T09:50:39.796Z,9.00
2022-08-20T09:53:08.181Z,8.15
2022-08-20T09:55:37.790Z,7.38
2022-08-20T09:58:09.799Z,9.45
2022-08-20T10:00:39.647Z,9.68
2022-08-20T10:03:08.024Z,9.90
2022-08-20T10:05:36.482Z,7.50
2022-08-20T10:08:06.711Z,8.35
2022-08-20T10:10:35.145Z,8.00
2022-08-20T10:13:03.635Z,7.53
2022-08-20T10:15:32.234Z,7.63
2022-08-20T10:18:05.575Z,7.85
2022-08-20T10:20:34.153Z,8.30
2022-08-20T10:23:02.896Z,7.30
2022-08-20T10:25:31.544Z,6.50
2022-08-20T10:28:00.139Z,7.53
2022-08-20T10:30:28.658Z,6.68
2022-08-20T10:32:57.065Z,7.20
2022-08-20T10:35:27.074Z,7.40
2022-08-20T10:37:55.586Z,6.20
2022-08-20T10:40:24.246Z,6.63
2022-08-20T10:42:54.709Z,8.90
2022-08-20T10:45:25.306Z,9.18
2022-08-20T10:47:53.793Z,10.02
2022-08-20T10:50:22.279Z,9.73
2022-08-20T10:52:52.021Z,10.25
2022-08-20T10:55:21.945Z,10.38
2022-08-20T10:57:50.387Z,11.20
2022-08-20T11:00:19.535Z,10.93
2022-08-20T11:02:47.991Z,12.93
2022-08-20T11:05:16.613Z,13.45
2022-08-20T11:07:53.695Z,12.57
2022-08-20T11:10:27.427Z,12.95
2022-08-20T11:12:56.202Z,12.20
2022-08-20T11:15:24.698Z,10.55
2022-08-20T11:17:53.130Z,8.88
2022-08-20T11:20:23.759Z,8.10
2022-08-20T11:22:52.163Z,8.30
2022-08-20T11:25:21.111Z,8.35
2022-08-20T11:27:51.361Z,6.97
2022-08-20T11:30:21.622Z,5.88
2022-08-20T11:32:50.043Z,5.13
2022-08-20T11:35:41.684Z,4.07
2022-08-20T11:38:07.968Z,5.93
2022-08-20T11:40:36.406Z,3.80
2022-08-20T11:43:15.120Z,4.25
2022-08-20T11:45:44.939Z,4.45
2022-08-20T11:48:13.332Z,4.10
2022-08-20T11:50:41.770Z,4.18
2022-08-20T11:53:10.253Z,5.03
2022-08-20T11:55:39.102Z,3.67
2022-08-20T11:58:08.850Z,3.30
2022-08-20T12:00:37.530Z,4.07
2022-08-20T12:03:08.912Z,3.67
2022-08-20T12:05:38.498Z,4.47
2022-08-20T12:08:08.435Z,4.32
2022-08-20T12:10:37.110Z,3.92
2022-08-20T12:13:05.512Z,3.88
2022-08-20T12:15:35.815Z,2.75
2022-08-20T12:18:07.631Z,2.90
2022-08-20T12:20:36.216Z,3.13
2022-08-20T12:23:04.668Z,4.53
2022-08-20T12:25:33.111Z,3.95
2022-08-20T12:28:01.492Z,3.75
2022-08-20T12:30:29.911Z,5.65
2022-08-20T12:32:59.775Z,4.38
2022-08-20T12:35:29.589Z,5.72
2022-08-20T12:37:59.923Z,3.45
2022-08-20T12:40:31.942Z,3.50
2022-08-20T12:43:01.332Z,5.65
2022-08-20T12:45:30.112Z,5.40
2022-08-20T12:48:03.843Z,5.30
2022-08-20T12:50:32.569Z,3.25
2022-08-20T12:53:01.106Z,2.95
2022-08-20T12:55:29.735Z,3.10
2022-08-20T12:57:59.540Z,3.67
2022-08-20T13:00:29.894Z,4.05
2022-08-20T13:02:59.713Z,4.05
2022-08-20T13:05:30.035Z,2.85
2022-08-20T13:07:58.594Z,2.00
2022-08-20T13:10:28.392Z,3.47
2022-08-20T13:12:57.035Z,2.53
2022-08-20T13:15:25.824Z,5.55
2022-08-20T13:17:54.880Z,4.40
2022-08-20T13:20:25.652Z,2.78
2022-08-20T13:23:00.816Z,3.40
2022-08-20T13:25:29.231Z,2.60
2022-08-20T13:27:58.929Z,2.65
2022-08-20T13:30:27.939Z,3.92
2022-08-20T13:32:56.430Z,3.70
2022-08-20T13:35:25.061Z,2.90
2022-08-20T13:37:53.457Z,4.57
2022-08-20T13:40:26.445Z,4.30
2022-08-20T13:42:54.995Z,3.22
2022-08-20T13:45:23.516Z,2.50
2022-08-20T13:47:53.876Z,3.65
2022-08-20T13:50:23.944Z,3.78
2022-08-20T13:52:52.511Z,4.10
2022-08-20T13:55:22.163Z,5.28
2022-08-20T13:57:52.317Z,3.28
2022-08-20T14:00:31.018Z,4.38
2022-08-20T14:03:00.414Z,3.50
2022-08-20T14:05:29.223Z,3.15
2022-08-20T14:07:57.645Z,3.33
2022-08-20T14:10:31.385Z,3.97
2022-08-20T14:13:01.311Z,4.47
2022-08-20T14:15:29.737Z,4.57
2022-08-20T14:17:59.224Z,4.97
2022-08-20T14:20:29.495Z,3.42
2022-08-20T14:23:01.360Z,6.15
2022-08-20T14:25:30.176Z,5.53
2022-08-20T14:27:59.007Z,5.60
2022-08-20T14:30:31.281Z,4.55
2022-08-20T14:32:59.692Z,5.35
2022-08-20T14:35:28.226Z,3.78
2022-08-20T14:37:56.650Z,5.47
2022-08-20T14:40:25.771Z,2.45
2022-08-20T14:42:54.582Z,4.00
2022-08-20T14:45:24.060Z,5.38
2022-08-20T14:47:54.509Z,3.45
2022-08-20T14:50:25.113Z,4.80
2022-08-20T14:52:53.615Z,4.15
2022-08-20T14:55:23.587Z,5.78
2022-08-20T14:57:51.962Z,4.22
2022-08-20T15:00:21.241Z,2.92
2022-08-20T15:02:49.683Z,4.78
2022-08-20T15:05:19.622Z,3.50
2022-08-20T15:07:49.092Z,3.60
2022-08-20T15:10:21.456Z,5.05
2022-08-20T15:12:49.872Z,4.57
2022-08-20T15:15:19.537Z,3.40
2022-08-20T15:17:49.218Z,7.22
2022-08-20T15:20:21.681Z,3.65
2022-08-20T15:22:51.132Z,4.63
2022-08-20T15:25:20.683Z,3.08
2022-08-20T15:27:49.156Z,3.70
2022-08-20T15:30:19.370Z,4.65
2022-08-20T15:32:52.685Z,3.95
2022-08-20T15:35:24.687Z,4.28
2022-08-20T15:37:54.762Z,3.55
2022-08-20T15:40:27.737Z,2.95
2022-08-20T15:42:56.922Z,4.68
2022-08-20T15:45:25.438Z,3.33
2022-08-20T15:47:55.973Z,4.70
2022-08-20T15:50:35.514Z,6.30
2022-08-20T15:53:06.748Z,5.55
2022-08-20T15:55:35.539Z,4.05
2022-08-20T15:58:09.646Z,4.47
2022-08-20T16:00:41.697Z,4.43
2022-08-20T16:03:24.974Z,4.50
2022-08-20T16:05:56.433Z,6.07
2022-08-20T16:08:35.793Z,4.18
2022-08-20T16:11:08.394Z,5.20
2022-08-20T16:13:40.398Z,5.60
2022-08-20T16:16:10.372Z,4.05
2022-08-20T16:18:42.487Z,2.97
2022-08-20T16:21:14.056Z,5.55
2022-08-20T16:23:43.835Z,6.68
2022-08-20T16:26:17.465Z,3.55
2022-08-20T16:28:50.852Z,5.20
2022-08-20T16:31:21.122Z,4.85
2022-08-20T16:33:56.521Z,5.28
2022-08-20T16:36:31.589Z,5.20
2022-08-20T16:39:00.900Z,3.42
2022-08-20T16:41:30.727Z,4.80
2022-08-20T16:44:02.062Z,6.22
2022-08-20T16:46:36.123Z,6.32
2022-08-20T16:49:11.332Z,6.80
2022-08-20T16:51:42.639Z,4.85
2022-08-20T16:54:11.238Z,5.35
2022-08-20T16:56:40.840Z,6.07
2022-08-20T16:59:10.099Z,6.43
2022-08-20T17:01:38.909Z,5.72
2022-08-20T17:04:08.092Z,5.00
2022-08-20T17:06:38.233Z,4.57
2022-08-20T17:09:11.063Z,5.03
2022-08-20T17:11:39.677Z,4.07
2022-08-20T17:14:10.454Z,6.05
2022-08-20T17:16:40.162Z,4.03
2022-08-20T17:19:10.296Z,4.78
2022-08-20T17:21:39.230Z,5.85
2022-08-20T17:24:16.687Z,7.40
2022-08-20T17:26:47.465Z,5.72
2022-08-20T17:29:17.492Z,7.78
2022-08-20T17:31:46.872Z,4.65
2022-08-20T17:34:16.022Z,5.47
2022-08-20T17:36:53.407Z,5.15
2022-08-20T17:39:23.948Z,6.20
2022-08-20T17:41:53.862Z,5.50
2022-08-20T17:44:23.433Z,4.20
2022-08-20T17:46:53.743Z,4.40
2022-08-20T17:49:34.799Z,5.10
2022-08-20T17:52:04.603Z,4.60
2022-08-20T17:54:36.230Z,4.85
2022-08-20T17:57:06.829Z,3.55
2022-08-20T18:00:00.818Z,4.88
2022-08-20T18:02:25.945Z,3.80
2022-08-20T18:04:55.664Z,4.57
2022-08-20T18:07:26.380Z,5.55
2022-08-20T18:09:59.571Z,4.35
2022-08-20T18:12:34.002Z,6.47
2022-08-20T18:15:06.041Z,5.13
2022-08-20T18:17:55.254Z,5.28
2022-08-20T18:20:37.430Z,5.32
2022-08-20T18:23:09.339Z,6.30
2022-08-20T18:25:41.000Z,5.43
2022-08-20T18:28:12.528Z,6.80
2022-08-20T18:30:48.989Z,6.07
2022-08-20T18:33:26.403Z,7.68
2022-08-20T18:36:04.751Z,4.80
2022-08-20T18:38:34.587Z,3.67
2022-08-20T18:41:15.020Z,4.63
2022-08-20T18:43:43.990Z,3.17
2022-08-20T18:46:14.364Z,5.30
2022-08-20T18:48:52.082Z,4.10
2022-08-20T18:51:22.248Z,3.90
2022-08-20T18:53:52.013Z,4.65
2022-08-20T18:56:31.613Z,3.20
2022-08-20T18:59:02.165Z,5.75
2022-08-20T19:01:31.890Z,5.70
2022-08-20T19:04:00.307Z,3.53
2022-08-20T19:06:35.373Z,4.45
2022-08-20T19:09:10.766Z,3.80
2022-08-20T19:11:47.678Z,3.15
2022-08-20T19:14:36.716Z,4.72
2022-08-20T19:17:08.268Z,2.70
2022-08-20T19:19:36.709Z,6.35
2022-08-20T19:22:05.850Z,4.43
2022-08-20T19:24:35.504Z,6.25
2022-08-20T19:27:07.226Z,4.63
2022-08-20T19:29:37.570Z,2.80
2022-08-20T19:32:07.220Z,6.32
2022-08-20T19:34:36.545Z,3.83
2022-08-20T19:37:27.528Z,5.45
2022-08-20T19:39:55.577Z,5.65
2022-08-20T19:42:26.696Z,3.10
2022-08-20T19:44:57.162Z,4.63
2022-08-20T19:47:31.419Z,5.03
2022-08-20T19:50:01.714Z,4.03
2022-08-20T19:52:35.330Z,4.10
2022-08-20T19:55:04.291Z,7.75
2022-08-20T19:57:34.220Z,4.05
2022-08-20T20:00:05.192Z,5.93
2022-08-20T20:02:35.049Z,5.15
2022-08-20T20:05:06.346Z,3.80
2022-08-20T20:07:38.670Z,4.45
2022-08-20T20:10:08.340Z,3.55
2022-08-20T20:12:38.544Z,5.90
2022-08-20T20:15:07.767Z,3.75
2022-08-20T20:17:37.338Z,4.05
2022-08-20T20:20:23.124Z,4.50
2022-08-20T20:22:53.586Z,3.63
2022-08-20T20:25:23.574Z,4.82
2022-08-20T20:27:54.985Z,6.47
2022-08-20T20:30:24.387Z,5.53
2022-08-20T20:32:53.202Z,4.78
2022-08-20T20:35:26.270Z,4.32
2022-08-20T20:37:59.411Z,5.80
2022-08-20T20:40:30.554Z,4.63
2022-08-20T20:43:05.266Z,6.47
2022-08-20T20:45:35.712Z,7.45
2022-08-20T20:48:11.674Z,5.75
2022-08-20T20:50:40.434Z,4.78
2022-08-20T20:53:08.895Z,3.50
2022-08-20T20:55:39.924Z,2.95
2022-08-20T20:58:09.701Z,5.85
2022-08-20T21:00:38.087Z,4.57
2022-08-20T21:03:06.497Z,4.68
2022-08-20T21:05:34.937Z,5.88
2022-08-20T21:08:04.252Z,5.15
2022-08-20T21:10:39.933Z,4.05
2022-08-20T21:13:10.157Z,6.97
2022-08-20T21:15:39.910Z,3.50
2022-08-20T21:18:09.224Z,3.78
2022-08-20T21:20:38.096Z,7.47
2022-08-20T21:23:06.546Z,4.40
2022-08-20T21:25:35.765Z,5.50
2022-08-20T21:28:04.323Z,5.65
2022-08-20T21:30:34.300Z,7.70
2022-08-20T21:33:02.915Z,7.80
2022-08-20T21:35:31.275Z,8.95
2022-08-20T21:37:59.684Z,4.60
2022-08-20T21:40:28.172Z,7.07
2022-08-20T21:42:57.495Z,5.83
2022-08-20T21:45:28.505Z,8.83
2022-08-20T21:47:58.799Z,5.23
2022-08-20T21:50:27.682Z,6.03
2022-08-20T21:52:59.713Z,7.00
2022-08-20T21:55:28.684Z,4.97
2022-08-20T21:57:57.273Z,5.53
2022-08-20T22:00:40.498Z,7.23
2022-08-20T22:03:10.302Z,4.33
2022-08-20T22:05:42.915Z,8.03
2022-08-20T22:08:11.810Z,7.37
2022-08-20T22:10:40.262Z,4.60
2022-08-20T22:13:08.707Z,5.43
2022-08-20T22:15:37.108Z,5.43
2022-08-20T22:18:05.835Z,8.00
2022-08-20T22:20:35.649Z,6.40
2022-08-20T22:23:04.733Z,7.53
2022-08-20T22:25:33.392Z,8.67
2022-08-20T22:28:01.916Z,7.27
2022-08-20T22:30:31.273Z,4.40
2022-08-20T22:33:02.391Z,4.83
2022-08-20T22:35:31.487Z,5.37
2022-08-20T22:38:01.348Z,4.63
2022-08-20T22:40:29.925Z,4.90
2022-08-20T22:42:58.599Z,6.00
2022-08-20T22:45:27.138Z,7.63
2022-08-20T22:47:55.567Z,6.53
2022-08-20T22:50:25.215Z,8.80
2022-08-20T22:52:54.199Z,6.07
2022-08-20T22:55:24.011Z,4.53
2022-08-20T22:57:52.469Z,6.77
2022-08-20T23:00:20.945Z,5.77
2022-08-20T23:02:51.387Z,5.60
2022-08-20T23:05:21.960Z,6.77
2022-08-20T23:07:53.991Z,4.47
2022-08-20T23:10:24.159Z,3.27
2022-08-20T23:12:52.619Z,8.70
2022-08-20T23:15:21.121Z,7.53
2022-08-20T23:17:49.568Z,4.23
2022-08-20T23:20:19.543Z,4.70
2022-08-20T23:22:47.924Z,7.20
2022-08-20T23:25:17.442Z,4.53
2022-08-20T23:27:48.415Z,5.40
2022-08-20T23:30:17.763Z,4.97
2022-08-20T23:32:46.319Z,3.57
2022-08-20T23:35:15.184Z,4.23
2022-08-20T23:37:44.936Z,6.23
2022-08-20T23:40:14.112Z,4.90
2022-08-20T23:42:42.548Z,5.30
2022-08-20T23:45:13.047Z,6.47
2022-08-20T23:47:42.156Z,7.60
2022-08-20T23:50:12.195Z,4.87
2022-08-20T23:52:40.582Z,4.17
2022-08-20T23:55:09.510Z,4.53
2022-08-20T23:57:39.099Z,7.40
